Time;durP1;ratioP1;P1;durP2;ratioP2;P2;SDS_P1;SDS_P2;PMS_P1;PMS_P2;Temp;Humidity;BMP_temperature;BMP_pressure;BME280_temperature;BME280_humidity;BME280_pressure;Samples;Min_cycle;Max_cycle;Signal;HPM_P1;HPM_P2
2023/06/09 00:01:13;;;;;;;;;;;20.60;70.20;;;;;;5013370;28;92130;-45
2023/06/09 00:03:39;;;;;;;;;;;20.50;70.30;;;;;;5010409;28;93180;-47
2023/06/09 00:06:05;;;;;;;;;;;20.50;70.30;;;;;;5011502;28;93160;-45
2023/06/09 00:08:31;;;;;;;;;;;20.50;70.20;;;;;;5012849;28;93579;-45
2023/06/09 00:10:57;;;;;;;;;;;20.50;70.30;;;;;;5012335;28;92132;-45
2023/06/09 00:13:22;;;;;;;;;;;20.50;70.20;;;;;;5011421;28;92393;-45
2023/06/09 00:15:48;;;;;;;;;;;20.50;70.20;;;;;;5009819;28;93357;-45
2023/06/09 00:18:15;;;;;;;;;;;20.40;70.10;;;;;;5011851;28;92021;-45
2023/06/09 00:20:42;;;;;;;;;;;20.40;70.30;;;;;;5011148;28;92472;-45
2023/06/09 00:23:08;;;;;;;;;;;20.40;70.30;;;;;;5012878;28;92502;-45
2023/06/09 00:25:34;;;;;;;;;;;20.40;70.30;;;;;;5010291;28;92176;-45
2023/06/09 00:27:59;;;;;;;;;;;20.40;70.20;;;;;;5011449;28;92278;-46
2023/06/09 00:30:25;;;;;;;;;;;20.40;70.20;;;;;;5014078;28;93966;-46
2023/06/09 00:32:50;;;;;;;;;;;20.40;70.30;;;;;;5010523;28;93562;-45
2023/06/09 00:35:16;;;;;;;;;;;20.40;70.20;;;;;;5011317;28;93067;-46
2023/06/09 00:37:42;;;;;;;;;;;20.40;70.10;;;;;;5011944;28;92222;-46
2023/06/09 00:40:08;;;;;;;;;;;20.40;70.20;;;;;;5009787;28;92355;-47
2023/06/09 00:42:34;;;;;;;;;;;20.30;70.30;;;;;;5011300;28;92979;-46
2023/06/09 00:45:00;;;;;;;;;;;20.30;70.20;;;;;;5011280;28;92142;-47
2023/06/09 00:47:26;;;;;;;;;;;20.40;70.30;;;;;;5011374;28;92171;-46
2023/06/09 00:49:52;;;;;;;;;;;20.30;70.30;;;;;;5011970;28;93171;-45
2023/06/09 00:52:17;;;;;;;;;;;20.30;70.30;;;;;;5011067;28;93087;-46
2023/06/09 00:54:43;;;;;;;;;;;20.30;70.30;;;;;;5010711;28;94197;-46
2023/06/09 00:57:10;;;;;;;;;;;20.30;70.30;;;;;;5009259;28;92226;-47
2023/06/09 00:59:36;;;;;;;;;;;20.20;70.30;;;;;;5011238;28;92353;-45
2023/06/09 01:02:04;;;;;;;;;;;20.20;70.20;;;;;;5011007;28;93086;-45
2023/06/09 01:04:32;;;;;;;;;;;20.20;70.30;;;;;;5011536;28;92247;-46
2023/06/09 01:07:20;;;;;;;;;;;20.20;70.30;;;;;;5010414;28;92464;-45
2023/06/09 01:09:52;;;;;;;;;;;20.20;70.30;;;;;;5009985;28;93049;-46
2023/06/09 01:12:18;;;;;;;;;;;20.20;70.30;;;;;;5012240;28;91534;-45
2023/06/09 01:14:52;;;;;;;;;;;20.20;71.00;;;;;;5010588;28;93281;-45
2023/06/09 01:17:19;;;;;;;;;;;20.20;70.30;;;;;;5012088;28;92187;-45
2023/06/09 01:19:50;;;;;;;;;;;20.10;70.30;;;;;;5009830;28;93100;-45
2023/06/09 01:22:37;;;;;;;;;;;20.20;70.40;;;;;;5010632;28;94839;-46
2023/06/09 01:25:17;;;;;;;;;;;20.10;70.30;;;;;;5011656;28;92184;-46
2023/06/09 01:27:44;;;;;;;;;;;20.10;70.30;;;;;;5011209;28;92194;-45
2023/06/09 01:30:11;;;;;;;;;;;20.10;70.30;;;;;;5008214;28;93137;-46
2023/06/09 01:32:38;;;;;;;;;;;20.10;70.40;;;;;;5011163;28;92178;-45
2023/06/09 01:35:04;;;;;;;;;;;20.10;70.40;;;;;;5011426;28;92585;-45
2023/06/09 01:37:30;;;;;;;;;;;20.00;70.40;;;;;;5012095;28;91559;-45
2023/06/09 01:39:55;;;;;;;;;;;20.00;70.40;;;;;;5009411;28;92189;-45
2023/06/09 01:42:21;;;;;;;;;;;20.00;70.30;;;;;;5009497;28;93260;-46
2023/06/09 01:44:46;;;;;;;;;;;20.00;70.40;;;;;;5011052;28;93730;-46
2023/06/09 01:47:12;;;;;;;;;;;20.00;70.50;;;;;;5008802;28;93512;-47
2023/06/09 01:50:04;;;;;;;;;;;20.00;70.40;;;;;;5010964;28;93736;-46
2023/06/09 01:52:29;;;;;;;;;;;20.00;70.40;;;;;;5007142;28;92126;-45
2023/06/09 01:54:58;;;;;;;;;;;20.00;70.30;;;;;;5008621;28;92500;-46
2023/06/09 01:57:30;;;;;;;;;;;19.90;70.40;;;;;;5012988;28;93160;-46
2023/06/09 01:59:57;;;;;;;;;;;19.90;70.50;;;;;;5011287;28;92073;-47
2023/06/09 02:02:25;;;;;;;;;;;19.90;70.40;;;;;;5008671;28;92541;-45
2023/06/09 02:04:52;;;;;;;;;;;19.90;70.50;;;;;;5009913;28;92204;-45
2023/06/09 02:07:19;;;;;;;;;;;19.90;70.40;;;;;;5011229;28;92520;-45
2023/06/09 02:09:45;;;;;;;;;;;19.90;70.50;;;;;;5007285;28;95318;-45
2023/06/09 02:12:10;;;;;;;;;;;19.90;70.30;;;;;;5009411;28;92218;-46
2023/06/09 02:14:36;;;;;;;;;;;19.90;70.40;;;;;;5010426;28;96408;-46
2023/06/09 02:17:02;;;;;;;;;;;19.90;70.40;;;;;;5008154;28;93021;-45
2023/06/09 02:19:28;;;;;;;;;;;19.90;70.40;;;;;;5014415;28;92176;-45
2023/06/09 02:21:54;;;;;;;;;;;19.90;70.50;;;;;;5007895;28;93054;-46
2023/06/09 02:24:20;;;;;;;;;;;19.80;70.40;;;;;;5011133;28;92356;-45
2023/06/09 02:26:48;;;;;;;;;;;19.80;70.40;;;;;;5009632;28;92650;-45
2023/06/09 02:29:15;;;;;;;;;;;19.80;70.30;;;;;;5007655;28;93275;-45
2023/06/09 02:31:40;;;;;;;;;;;19.80;70.40;;;;;;5010821;28;92210;-45
2023/06/09 02:34:06;;;;;;;;;;;19.80;70.50;;;;;;5009355;28;93041;-45
2023/06/09 02:36:31;;;;;;;;;;;19.80;70.40;;;;;;5009372;28;93277;-46
2023/06/09 02:38:57;;;;;;;;;;;19.70;70.50;;;;;;5007994;28;92687;-45
2023/06/09 02:41:23;;;;;;;;;;;19.70;70.40;;;;;;5012435;28;93785;-47
2023/06/09 02:43:48;;;;;;;;;;;19.80;70.40;;;;;;5009301;28;92129;-45
2023/06/09 02:46:17;;;;;;;;;;;19.70;70.30;;;;;;5008066;28;92611;-45
2023/06/09 02:48:42;;;;;;;;;;;19.70;70.30;;;;;;5007446;28;93126;-45
2023/06/09 02:51:08;;;;;;;;;;;19.70;70.30;;;;;;5008746;28;91457;-46
2023/06/09 02:53:33;;;;;;;;;;;19.70;70.30;;;;;;5009909;28;92262;-45
2023/06/09 02:55:59;;;;;;;;;;;19.60;70.40;;;;;;5006960;28;93044;-45
2023/06/09 02:58:24;;;;;;;;;;;19.70;70.60;;;;;;5008168;28;93063;-45
2023/06/09 03:00:50;;;;;;;;;;;19.60;70.50;;;;;;5011947;28;93234;-46
2023/06/09 03:03:17;;;;;;;;;;;19.70;70.50;;;;;;5007519;28;92208;-45
2023/06/09 03:05:43;;;;;;;;;;;19.60;70.40;;;;;;5007988;28;92560;-46
2023/06/09 03:08:09;;;;;;;;;;;19.60;70.40;;;;;;5005891;28;93075;-46
2023/06/09 03:10:35;;;;;;;;;;;19.60;70.30;;;;;;5009932;28;94107;-46
2023/06/09 03:13:01;;;;;;;;;;;19.60;70.40;;;;;;5008584;28;92402;-46
2023/06/09 03:15:26;;;;;;;;;;;19.60;70.50;;;;;;5004642;28;92624;-45
2023/06/09 03:17:52;;;;;;;;;;;19.60;70.40;;;;;;5010021;28;92738;-45
2023/06/09 03:20:19;;;;;;;;;;;19.50;70.40;;;;;;5006444;28;92525;-45
2023/06/09 03:22:45;;;;;;;;;;;19.50;70.60;;;;;;5008877;28;94712;-46
2023/06/09 03:25:12;;;;;;;;;;;19.50;70.60;;;;;;5005454;28;93355;-46
2023/06/09 03:27:38;;;;;;;;;;;19.50;70.50;;;;;;5009477;28;93196;-45
2023/06/09 03:30:04;;;;;;;;;;;19.50;70.50;;;;;;5006027;28;93555;-45
2023/06/09 03:32:30;;;;;;;;;;;19.50;70.50;;;;;;4999037;28;93517;-45
2023/06/09 03:34:55;;;;;;;;;;;19.50;70.50;;;;;;5007156;28;92385;-45
2023/06/09 03:37:20;;;;;;;;;;;19.50;70.50;;;;;;5013189;28;92154;-45
2023/06/09 03:39:46;;;;;;;;;;;19.40;70.50;;;;;;5010579;28;92531;-46
2023/06/09 03:42:11;;;;;;;;;;;19.50;70.60;;;;;;5007591;28;92759;-46
2023/06/09 03:44:37;;;;;;;;;;;19.50;70.50;;;;;;5011455;28;92926;-46
2023/06/09 03:47:03;;;;;;;;;;;19.40;70.40;;;;;;5011227;28;94218;-45
2023/06/09 03:49:28;;;;;;;;;;;19.40;70.60;;;;;;5011987;28;92190;-46
2023/06/09 03:51:54;;;;;;;;;;;19.40;70.40;;;;;;5015045;28;92903;-45
2023/06/09 03:54:19;;;;;;;;;;;19.40;70.50;;;;;;5008205;28;92995;-45
2023/06/09 03:56:45;;;;;;;;;;;19.30;70.60;;;;;;5011841;28;92496;-45
2023/06/09 03:59:11;;;;;;;;;;;19.40;70.60;;;;;;5007023;28;92382;-45
2023/06/09 04:01:40;;;;;;;;;;;19.40;70.40;;;;;;5009328;28;93302;-46
2023/06/09 04:04:06;;;;;;;;;;;19.40;70.50;;;;;;5009683;28;91301;-46
2023/06/09 04:06:31;;;;;;;;;;;19.30;70.40;;;;;;5015949;28;92253;-45
2023/06/09 04:08:57;;;;;;;;;;;19.30;70.50;;;;;;5005477;28;92390;-46
2023/06/09 04:11:22;;;;;;;;;;;19.30;70.50;;;;;;5005527;28;94059;-45
2023/06/09 04:13:48;;;;;;;;;;;19.30;70.40;;;;;;5011259;28;93018;-45
2023/06/09 04:16:15;;;;;;;;;;;19.30;70.40;;;;;;5009235;28;92061;-45
2023/06/09 04:18:40;;;;;;;;;;;19.30;70.40;;;;;;5007966;28;92507;-45
2023/06/09 04:21:06;;;;;;;;;;;19.20;70.40;;;;;;5014145;28;93248;-45
2023/06/09 04:23:32;;;;;;;;;;;19.30;70.50;;;;;;5009868;28;92232;-45
2023/06/09 04:25:59;;;;;;;;;;;19.30;70.50;;;;;;5012350;28;93826;-45
2023/06/09 04:28:25;;;;;;;;;;;19.30;70.50;;;;;;5010200;28;93972;-45
2023/06/09 04:30:50;;;;;;;;;;;19.30;70.40;;;;;;5006789;28;92283;-45
2023/06/09 04:33:16;;;;;;;;;;;19.30;70.50;;;;;;4993965;28;94711;-45
2023/06/09 04:35:43;;;;;;;;;;;19.30;70.40;;;;;;5007870;28;93171;-46
2023/06/09 04:38:09;;;;;;;;;;;19.30;70.60;;;;;;5006675;28;93643;-47
2023/06/09 04:40:37;;;;;;;;;;;19.20;70.50;;;;;;5007685;28;93077;-45
2023/06/09 04:43:03;;;;;;;;;;;19.20;70.40;;;;;;5011224;28;92285;-45
2023/06/09 04:45:28;;;;;;;;;;;19.20;70.40;;;;;;5008753;28;93257;-45
2023/06/09 04:48:00;;;;;;;;;;;19.30;70.50;;;;;;5009161;28;93096;-45
2023/06/09 04:50:29;;;;;;;;;;;19.20;70.40;;;;;;5011617;28;92013;-45
2023/06/09 04:52:56;;;;;;;;;;;19.30;70.40;;;;;;5012121;28;92401;-45
2023/06/09 04:55:25;;;;;;;;;;;19.30;70.40;;;;;;5008569;28;92782;-45
2023/06/09 04:57:53;;;;;;;;;;;19.30;70.40;;;;;;5007255;28;92103;-45
2023/06/09 05:00:19;;;;;;;;;;;19.30;70.40;;;;;;5007848;28;93843;-45
2023/06/09 05:02:44;;;;;;;;;;;19.20;70.40;;;;;;5011070;28;92165;-47
2023/06/09 05:05:10;;;;;;;;;;;19.30;70.40;;;;;;5010746;28;92199;-45
2023/06/09 05:07:39;;;;;;;;;;;19.30;70.40;;;;;;5006248;28;92945;-45
2023/06/09 05:10:06;;;;;;;;;;;19.20;70.50;;;;;;5013896;28;92144;-45
2023/06/09 05:12:32;;;;;;;;;;;19.30;70.50;;;;;;5010574;28;93230;-46
2023/06/09 05:14:57;;;;;;;;;;;19.20;70.50;;;;;;5006926;28;92270;-45
2023/06/09 05:17:24;;;;;;;;;;;19.20;70.60;;;;;;5008269;28;92535;-45
2023/06/09 05:19:50;;;;;;;;;;;19.20;70.70;;;;;;5010665;28;93174;-46
2023/06/09 05:22:16;;;;;;;;;;;19.20;70.70;;;;;;5008176;28;92254;-45
2023/06/09 05:24:41;;;;;;;;;;;19.20;70.80;;;;;;5009939;28;93415;-45
2023/06/09 05:27:08;;;;;;;;;;;19.20;70.70;;;;;;5008602;28;94402;-45
2023/06/09 05:29:33;;;;;;;;;;;19.20;70.90;;;;;;5011375;28;92172;-45
2023/06/09 05:31:59;;;;;;;;;;;19.30;70.80;;;;;;5008438;28;92556;-45
2023/06/09 05:34:25;;;;;;;;;;;19.20;70.90;;;;;;5008878;28;92591;-46
2023/06/09 05:36:50;;;;;;;;;;;19.20;70.90;;;;;;5007415;28;92754;-45
2023/06/09 05:39:16;;;;;;;;;;;19.20;71.10;;;;;;5008448;28;93288;-46
2023/06/09 05:41:41;;;;;;;;;;;19.20;71.00;;;;;;5005897;28;91404;-45
2023/06/09 05:44:07;;;;;;;;;;;19.20;71.00;;;;;;5010892;28;92711;-45
2023/06/09 05:46:36;;;;;;;;;;;19.20;70.90;;;;;;5008481;28;93387;-45
2023/06/09 05:49:02;;;;;;;;;;;19.30;71.10;;;;;;5008842;28;93649;-45
2023/06/09 05:51:27;;;;;;;;;;;19.20;71.20;;;;;;5012342;28;93331;-45
2023/06/09 05:53:53;;;;;;;;;;;19.30;71.30;;;;;;5005931;28;93218;-45
2023/06/09 05:56:19;;;;;;;;;;;19.20;71.20;;;;;;5008000;28;92437;-45
2023/06/09 05:58:45;;;;;;;;;;;19.20;71.20;;;;;;5009138;28;92206;-46
2023/06/09 06:01:12;;;;;;;;;;;19.20;71.30;;;;;;5008079;28;92302;-45
2023/06/09 06:03:38;;;;;;;;;;;19.30;71.30;;;;;;5007863;28;92971;-45
2023/06/09 06:06:04;;;;;;;;;;;19.30;71.30;;;;;;5009565;28;92338;-46
2023/06/09 06:08:29;;;;;;;;;;;19.30;71.30;;;;;;5010884;28;92216;-45
2023/06/09 06:10:55;;;;;;;;;;;19.30;71.40;;;;;;5006273;28;92312;-45
2023/06/09 06:13:21;;;;;;;;;;;19.30;71.50;;;;;;5005673;28;94788;-46
2023/06/09 06:15:46;;;;;;;;;;;19.20;71.60;;;;;;5013046;28;92127;-45
2023/06/09 06:18:12;;;;;;;;;;;19.30;71.60;;;;;;5004091;28;93191;-46
2023/06/09 06:20:37;;;;;;;;;;;19.30;71.50;;;;;;5007541;28;92722;-46
2023/06/09 06:23:03;;;;;;;;;;;19.30;71.50;;;;;;5006020;28;92561;-45
2023/06/09 06:25:28;;;;;;;;;;;19.30;71.50;;;;;;5008273;28;93233;-46
2023/06/09 06:27:55;;;;;;;;;;;19.30;71.60;;;;;;5005073;28;92162;-45
2023/06/09 06:30:20;;;;;;;;;;;19.30;71.60;;;;;;5012605;28;92380;-46
2023/06/09 06:32:50;;;;;;;;;;;19.30;71.70;;;;;;5007279;28;93241;-45
2023/06/09 06:35:22;;;;;;;;;;;19.30;71.70;;;;;;5008060;28;92190;-46
2023/06/09 06:37:48;;;;;;;;;;;19.30;71.60;;;;;;5007726;28;93941;-45
2023/06/09 06:40:13;;;;;;;;;;;19.30;71.60;;;;;;5008497;28;92939;-45
2023/06/09 06:42:40;;;;;;;;;;;19.30;71.80;;;;;;5008074;28;92679;-45
2023/06/09 06:45:05;;;;;;;;;;;19.30;71.80;;;;;;5008155;28;94606;-46
2023/06/09 06:47:31;;;;;;;;;;;19.30;71.70;;;;;;5005300;28;92956;-45
2023/06/09 06:49:56;;;;;;;;;;;19.30;71.70;;;;;;5006090;28;92497;-45
2023/06/09 06:52:22;;;;;;;;;;;19.30;71.80;;;;;;5008195;28;93290;-45
2023/06/09 06:54:47;;;;;;;;;;;19.30;71.80;;;;;;5009524;28;91414;-45
2023/06/09 06:57:14;;;;;;;;;;;19.30;71.80;;;;;;5010163;28;92065;-46
2023/06/09 06:59:39;;;;;;;;;;;19.30;72.00;;;;;;5010233;28;92270;-45
2023/06/09 07:02:05;;;;;;;;;;;19.30;71.90;;;;;;5008749;28;92994;-45
2023/06/09 07:04:31;;;;;;;;;;;19.30;71.80;;;;;;5007356;28;93289;-45
2023/06/09 07:06:56;;;;;;;;;;;19.30;71.80;;;;;;5010388;28;92163;-45
2023/06/09 07:09:22;;;;;;;;;;;19.30;71.90;;;;;;5007163;28;92429;-45
2023/06/09 07:11:48;;;;;;;;;;;19.30;72.10;;;;;;5007801;28;93115;-45
2023/06/09 07:14:13;;;;;;;;;;;19.30;71.90;;;;;;5009787;28;92247;-46
2023/06/09 07:16:39;;;;;;;;;;;19.30;72.20;;;;;;5008248;28;92362;-45
2023/06/09 07:19:05;;;;;;;;;;;19.30;72.20;;;;;;5011417;28;92211;-45
2023/06/09 07:21:32;;;;;;;;;;;19.30;72.20;;;;;;5010263;28;92156;-45
2023/06/09 07:23:57;;;;;;;;;;;19.30;72.10;;;;;;5006880;28;93030;-45
2023/06/09 07:26:23;;;;;;;;;;;19.30;72.00;;;;;;5009537;28;93512;-46
2023/06/09 07:28:48;;;;;;;;;;;19.30;72.10;;;;;;5007653;28;93606;-45
2023/06/09 07:31:16;;;;;;;;;;;19.30;72.20;;;;;;5008922;28;93927;-45
2023/06/09 07:33:41;;;;;;;;;;;19.30;72.00;;;;;;5008488;28;92089;-45
2023/06/09 07:36:10;;;;;;;;;;;19.30;72.00;;;;;;5008151;28;93179;-46
2023/06/09 07:38:38;;;;;;;;;;;19.30;72.10;;;;;;5009219;28;93212;-46
2023/06/09 07:41:03;;;;;;;;;;;19.30;72.30;;;;;;5011411;28;93114;-46
2023/06/09 07:43:29;;;;;;;;;;;19.30;72.30;;;;;;5009593;28;92431;-45
2023/06/09 07:45:54;;;;;;;;;;;19.30;72.00;;;;;;5007107;28;92463;-45
2023/06/09 07:48:20;;;;;;;;;;;19.40;72.30;;;;;;5009073;28;92382;-46
2023/06/09 07:50:46;;;;;;;;;;;19.30;72.20;;;;;;5007763;28;94026;-45
2023/06/09 07:53:11;;;;;;;;;;;19.40;72.20;;;;;;5006855;28;92109;-46
2023/06/09 07:55:37;;;;;;;;;;;19.40;72.30;;;;;;5007223;28;92636;-46
2023/06/09 07:58:02;;;;;;;;;;;19.40;72.50;;;;;;5007786;28;93188;-46
2023/06/09 08:00:28;;;;;;;;;;;19.40;72.10;;;;;;5007359;28;92408;-45
2023/06/09 08:03:03;;;;;;;;;;;19.40;72.40;;;;;;5012298;28;92320;-46
2023/06/09 08:05:30;;;;;;;;;;;19.30;72.40;;;;;;5008692;28;92105;-45
2023/06/09 08:07:55;;;;;;;;;;;19.40;72.30;;;;;;5006994;28;92361;-46
2023/06/09 08:10:21;;;;;;;;;;;19.40;72.30;;;;;;5009467;28;92983;-45
2023/06/09 08:12:48;;;;;;;;;;;19.40;72.30;;;;;;5007580;28;92585;-45
2023/06/09 08:15:14;;;;;;;;;;;19.50;72.00;;;;;;5009008;28;93088;-46
2023/06/09 08:17:39;;;;;;;;;;;19.40;72.40;;;;;;5007129;28;93181;-45
2023/06/09 08:20:05;;;;;;;;;;;19.40;72.20;;;;;;5009237;28;92167;-45
2023/06/09 08:22:31;;;;;;;;;;;19.40;72.10;;;;;;5012474;28;93706;-45
2023/06/09 08:24:57;;;;;;;;;;;19.40;72.30;;;;;;5012746;28;93241;-45
2023/06/09 08:27:23;;;;;;;;;;;19.40;72.40;;;;;;5010950;28;93849;-45
2023/06/09 08:29:49;;;;;;;;;;;19.50;72.20;;;;;;5011653;28;93338;-45
2023/06/09 08:32:15;;;;;;;;;;;19.50;72.10;;;;;;5010494;28;91454;-45
2023/06/09 08:34:41;;;;;;;;;;;19.50;72.20;;;;;;5011969;28;92021;-45
2023/06/09 08:37:07;;;;;;;;;;;19.40;72.10;;;;;;5011056;28;92715;-45
2023/06/09 08:39:33;;;;;;;;;;;19.50;72.70;;;;;;5009289;28;93362;-46
2023/06/09 08:42:01;;;;;;;;;;;19.50;72.10;;;;;;5011583;28;92002;-45
2023/06/09 08:44:28;;;;;;;;;;;19.50;72.10;;;;;;5011123;28;93010;-46
2023/06/09 08:46:57;;;;;;;;;;;19.50;72.10;;;;;;5012798;28;92464;-45
2023/06/09 08:49:22;;;;;;;;;;;19.50;72.10;;;;;;5010802;28;93152;-45
2023/06/09 08:51:48;;;;;;;;;;;19.50;71.90;;;;;;5011587;28;92268;-45
2023/06/09 08:54:15;;;;;;;;;;;19.50;72.10;;;;;;5009677;28;92347;-45
2023/06/09 08:56:41;;;;;;;;;;;19.50;71.80;;;;;;5012175;28;91676;-45
2023/06/09 08:59:07;;;;;;;;;;;19.50;72.00;;;;;;5010443;28;92103;-46
2023/06/09 09:01:33;;;;;;;;;;;19.60;71.80;;;;;;5012445;28;93057;-49
2023/06/09 09:03:58;;;;;;;;;;;19.60;71.80;;;;;;5008530;28;94108;-45
2023/06/09 09:06:24;;;;;;;;;;;19.60;71.80;;;;;;5013638;28;92316;-45
2023/06/09 09:08:50;;;;;;;;;;;19.60;71.80;;;;;;5011284;28;93052;-45
2023/06/09 09:11:15;;;;;;;;;;;19.60;71.80;;;;;;5010234;28;92219;-46
2023/06/09 09:13:41;;;;;;;;;;;19.60;71.80;;;;;;5009770;28;92232;-45
2023/06/09 09:16:10;;;;;;;;;;;19.60;71.80;;;;;;5009435;28;92914;-45
2023/06/09 09:18:36;;;;;;;;;;;19.60;71.80;;;;;;5011873;28;92245;-46
2023/06/09 09:21:02;;;;;;;;;;;19.70;71.90;;;;;;5010588;28;92496;-45
2023/06/09 09:23:29;;;;;;;;;;;19.70;71.90;;;;;;5009183;28;93345;-45
2023/06/09 09:25:54;;;;;;;;;;;19.70;71.80;;;;;;5011638;28;92271;-45
2023/06/09 09:28:20;;;;;;;;;;;19.70;71.90;;;;;;5011671;28;93066;-45
2023/06/09 09:30:50;;;;;;;;;;;19.70;71.80;;;;;;5010681;28;92110;-46
2023/06/09 09:33:22;;;;;;;;;;;19.70;71.70;;;;;;5008278;28;92480;-46
2023/06/09 09:35:53;;;;;;;;;;;19.70;71.80;;;;;;5009297;28;93109;-45
2023/06/09 09:38:22;;;;;;;;;;;19.70;71.80;;;;;;5011532;28;92111;-46
2023/06/09 09:40:52;;;;;;;;;;;19.70;71.80;;;;;;5010374;28;92335;-46
2023/06/09 09:43:18;;;;;;;;;;;19.80;71.90;;;;;;5009117;28;93154;-46
2023/06/09 09:45:48;;;;;;;;;;;19.80;71.90;;;;;;5011968;28;92055;-46
2023/06/09 09:48:14;;;;;;;;;;;19.80;71.90;;;;;;5010382;28;92741;-45
2023/06/09 09:50:41;;;;;;;;;;;19.80;71.90;;;;;;5011142;28;93177;-47
2023/06/09 09:53:07;;;;;;;;;;;19.80;71.90;;;;;;5010239;28;93076;-45
2023/06/09 09:55:36;;;;;;;;;;;19.80;71.90;;;;;;5009944;28;93026;-46
2023/06/09 09:58:03;;;;;;;;;;;19.90;71.90;;;;;;5010922;28;92298;-47
2023/06/09 10:00:29;;;;;;;;;;;19.90;71.90;;;;;;5009576;28;92567;-45
2023/06/09 10:02:59;;;;;;;;;;;19.90;71.80;;;;;;5008400;28;93199;-46
2023/06/09 10:05:26;;;;;;;;;;;19.90;71.80;;;;;;5011095;28;92211;-45
2023/06/09 10:07:55;;;;;;;;;;;19.90;71.80;;;;;;5009752;28;92286;-46
2023/06/09 10:10:21;;;;;;;;;;;19.90;71.80;;;;;;5008190;28;91552;-45
2023/06/09 10:12:47;;;;;;;;;;;19.90;71.80;;;;;;5015140;28;92183;-46
2023/06/09 10:15:13;;;;;;;;;;;20.00;71.80;;;;;;5009242;28;93142;-46
2023/06/09 10:17:41;;;;;;;;;;;20.00;71.90;;;;;;5007588;28;93085;-46
2023/06/09 10:20:08;;;;;;;;;;;20.00;71.80;;;;;;5008303;28;93268;-45
2023/06/09 10:22:34;;;;;;;;;;;20.00;71.80;;;;;;5008703;28;93017;-46
2023/06/09 10:25:00;;;;;;;;;;;20.00;71.90;;;;;;5010754;28;92183;-46
2023/06/09 10:27:26;;;;;;;;;;;20.00;71.90;;;;;;4991419;28;93228;-45
2023/06/09 10:29:52;;;;;;;;;;;20.10;71.80;;;;;;5008800;28;93177;-46
2023/06/09 10:32:20;;;;;;;;;;;20.10;71.80;;;;;;5008338;28;92266;-45
2023/06/09 10:34:47;;;;;;;;;;;20.10;71.80;;;;;;5013878;28;92566;-46
2023/06/09 10:37:26;;;;;;;;;;;20.10;71.80;;;;;;5009144;28;92167;-45
2023/06/09 10:39:56;;;;;;;;;;;20.10;71.80;;;;;;5008577;28;92382;-45
2023/06/09 10:42:35;;;;;;;;;;;20.20;71.90;;;;;;5008867;28;94142;-46
2023/06/09 10:45:07;;;;;;;;;;;20.20;71.80;;;;;;5009264;28;92126;-45
2023/06/09 10:47:45;;;;;;;;;;;20.20;71.70;;;;;;5008093;28;92520;-45
2023/06/09 10:50:23;;;;;;;;;;;20.20;71.70;;;;;;5010959;28;93448;-46
2023/06/09 10:52:49;;;;;;;;;;;20.30;71.70;;;;;;5008896;28;92234;-46
2023/06/09 10:55:15;;;;;;;;;;;20.30;71.60;;;;;;5007500;28;94538;-45
2023/06/09 10:57:41;;;;;;;;;;;20.30;71.60;;;;;;5012534;28;93078;-46
2023/06/09 11:00:15;;;;;;;;;;;20.30;71.60;;;;;;5009029;28;93761;-45
2023/06/09 11:03:01;;;;;;;;;;;20.30;71.60;;;;;;5007079;28;93199;-46
2023/06/09 11:05:39;;;;;;;;;;;20.30;71.60;;;;;;4992515;28;92317;-45
2023/06/09 11:08:05;;;;;;;;;;;20.40;71.70;;;;;;5007048;28;94103;-46
2023/06/09 11:10:30;;;;;;;;;;;20.40;71.70;;;;;;5009797;28;93186;-46
2023/06/09 11:12:56;;;;;;;;;;;20.40;71.70;;;;;;5008536;28;92084;-45
2023/06/09 11:15:22;;;;;;;;;;;20.40;71.70;;;;;;5008705;28;92356;-46
2023/06/09 11:17:52;;;;;;;;;;;20.40;71.60;;;;;;5012575;28;92115;-45
2023/06/09 11:20:19;;;;;;;;;;;20.50;71.70;;;;;;5008133;28;92413;-46
2023/06/09 11:22:44;;;;;;;;;;;20.40;71.60;;;;;;5007564;28;93033;-46
2023/06/09 11:25:19;;;;;;;;;;;20.50;71.60;;;;;;5010602;28;91361;-45
2023/06/09 11:27:46;;;;;;;;;;;20.50;71.60;;;;;;5009270;28;92044;-46
2023/06/09 11:30:18;;;;;;;;;;;20.50;71.50;;;;;;5008798;28;93133;-46
2023/06/09 11:32:48;;;;;;;;;;;20.50;71.60;;;;;;5007826;28;93062;-45
2023/06/09 11:35:25;;;;;;;;;;;20.50;71.60;;;;;;5007201;28;93457;-45
2023/06/09 11:37:51;;;;;;;;;;;20.50;71.50;;;;;;5007522;28;93352;-45
2023/06/09 11:40:17;;;;;;;;;;;20.50;71.50;;;;;;5013111;28;92118;-45
2023/06/09 11:42:43;;;;;;;;;;;20.60;71.40;;;;;;5006962;28;93111;-46
2023/06/09 11:45:08;;;;;;;;;;;20.60;71.40;;;;;;5009609;28;92125;-45
2023/06/09 11:47:34;;;;;;;;;;;20.70;71.40;;;;;;5009332;28;92487;-46
2023/06/09 11:50:00;;;;;;;;;;;20.70;71.40;;;;;;5006932;28;92917;-45
2023/06/09 11:52:26;;;;;;;;;;;20.70;71.30;;;;;;5008418;28;92418;-45
2023/06/09 11:54:52;;;;;;;;;;;20.80;71.30;;;;;;5009753;28;93705;-45
2023/06/09 11:57:17;;;;;;;;;;;20.80;71.30;;;;;;5009112;28;93311;-46
2023/06/09 11:59:43;;;;;;;;;;;20.80;71.20;;;;;;5011963;28;92179;-47
2023/06/09 12:02:10;;;;;;;;;;;20.80;71.10;;;;;;5014633;28;92389;-46
2023/06/09 12:04:42;;;;;;;;;;;20.80;71.10;;;;;;5010238;28;92139;-46
2023/06/09 12:07:14;;;;;;;;;;;20.80;71.20;;;;;;5011713;28;92454;-45
2023/06/09 12:09:40;;;;;;;;;;;20.80;71.80;;;;;;5012272;28;93012;-46
2023/06/09 12:12:06;;;;;;;;;;;20.80;71.20;;;;;;5010698;28;92245;-46
2023/06/09 12:14:31;;;;;;;;;;;20.90;71.20;;;;;;5011981;28;92250;-46
2023/06/09 12:16:57;;;;;;;;;;;20.80;71.90;;;;;;5009794;28;92250;-46
2023/06/09 12:19:23;;;;;;;;;;;20.90;71.40;;;;;;5012802;28;92015;-46
2023/06/09 12:21:48;;;;;;;;;;;20.90;71.20;;;;;;5010710;28;93009;-45
2023/06/09 12:24:14;;;;;;;;;;;20.90;71.20;;;;;;5013162;28;93916;-45
2023/06/09 12:26:44;;;;;;;;;;;20.90;71.10;;;;;;5012788;28;92160;-46
2023/06/09 12:29:10;;;;;;;;;;;20.90;71.20;;;;;;5010056;28;93251;-46
2023/06/09 12:31:45;;;;;;;;;;;20.90;71.10;;;;;;5012344;28;92141;-45
2023/06/09 12:34:21;;;;;;;;;;;21.00;71.20;;;;;;5011314;28;92326;-45
2023/06/09 12:36:47;;;;;;;;;;;20.90;71.10;;;;;;5009338;28;92957;-45
2023/06/09 12:39:16;;;;;;;;;;;21.00;71.00;;;;;;5011741;28;91653;-45
2023/06/09 12:41:42;;;;;;;;;;;21.00;71.00;;;;;;5011621;28;92167;-47
2023/06/09 12:44:08;;;;;;;;;;;21.00;70.90;;;;;;5009939;28;93159;-46
2023/06/09 12:46:34;;;;;;;;;;;21.00;70.90;;;;;;5013941;28;93097;-45
2023/06/09 12:49:04;;;;;;;;;;;21.10;70.70;;;;;;5011331;28;93251;-47
2023/06/09 12:51:30;;;;;;;;;;;21.10;70.80;;;;;;5009455;28;92637;-45
2023/06/09 12:53:56;;;;;;;;;;;21.10;70.70;;;;;;4992465;28;95283;-46
2023/06/09 12:56:22;;;;;;;;;;;21.10;70.70;;;;;;5011299;28;93214;-46
2023/06/09 12:58:47;;;;;;;;;;;21.10;70.60;;;;;;5009428;28;92220;-45
2023/06/09 13:01:14;;;;;;;;;;;21.20;70.60;;;;;;5010950;28;92066;-46
2023/06/09 13:03:39;;;;;;;;;;;21.20;70.60;;;;;;5011248;28;92329;-46
2023/06/09 13:06:05;;;;;;;;;;;21.20;70.50;;;;;;5008560;28;92220;-45
2023/06/09 13:08:30;;;;;;;;;;;21.20;70.50;;;;;;5014281;28;92148;-46
2023/06/09 13:10:56;;;;;;;;;;;21.30;70.60;;;;;;5010011;28;93078;-45
2023/06/09 13:13:22;;;;;;;;;;;21.30;70.50;;;;;;5008851;28;96082;-45
2023/06/09 13:15:47;;;;;;;;;;;21.30;70.30;;;;;;5010820;28;93285;-45
2023/06/09 13:18:14;;;;;;;;;;;21.30;70.30;;;;;;5010371;28;92328;-45
2023/06/09 13:20:40;;;;;;;;;;;21.30;70.50;;;;;;5009655;28;92406;-45
2023/06/09 13:23:06;;;;;;;;;;;21.30;70.40;;;;;;5011387;28;93295;-46
2023/06/09 13:25:31;;;;;;;;;;;21.30;70.40;;;;;;5009661;28;92093;-47
2023/06/09 13:27:57;;;;;;;;;;;21.40;70.40;;;;;;5013093;28;92319;-45
2023/06/09 13:30:23;;;;;;;;;;;21.40;70.40;;;;;;5010498;28;92128;-46
2023/06/09 13:32:48;;;;;;;;;;;21.40;70.30;;;;;;5011600;28;92321;-46
2023/06/09 13:35:16;;;;;;;;;;;21.40;70.30;;;;;;5009339;28;93962;-46
2023/06/09 13:37:42;;;;;;;;;;;21.40;70.30;;;;;;5008959;28;92073;-46
2023/06/09 13:40:08;;;;;;;;;;;21.40;70.30;;;;;;5009143;28;92373;-47
2023/06/09 13:42:33;;;;;;;;;;;21.40;70.20;;;;;;5010034;28;93261;-45
2023/06/09 13:44:59;;;;;;;;;;;21.40;70.20;;;;;;5010459;28;92224;-45
2023/06/09 13:47:24;;;;;;;;;;;21.50;70.10;;;;;;5008709;28;92135;-46
2023/06/09 13:49:53;;;;;;;;;;;21.50;70.00;;;;;;5013359;28;93233;-45
2023/06/09 13:52:19;;;;;;;;;;;21.50;70.10;;;;;;5011388;28;91506;-45
2023/06/09 13:54:44;;;;;;;;;;;21.50;70.10;;;;;;5007861;28;93438;-46
2023/06/09 13:57:11;;;;;;;;;;;21.50;70.10;;;;;;5010768;28;92201;-46
2023/06/09 13:59:36;;;;;;;;;;;21.50;70.00;;;;;;5009902;28;92987;-45
2023/06/09 14:02:02;;;;;;;;;;;21.60;70.00;;;;;;5009243;28;92977;-46
2023/06/09 14:04:28;;;;;;;;;;;21.60;70.00;;;;;;5008791;28;92512;-45
2023/06/09 14:06:53;;;;;;;;;;;21.60;69.90;;;;;;5009935;28;92472;-46
2023/06/09 14:09:19;;;;;;;;;;;21.60;70.00;;;;;;5010478;28;93251;-46
2023/06/09 14:11:44;;;;;;;;;;;21.60;70.00;;;;;;4992996;28;92480;-46
2023/06/09 14:14:10;;;;;;;;;;;21.60;70.00;;;;;;5009132;28;93147;-46